< < Back
Terminal Aerodrome Forecast


Current Version              Previous Versions:   1  2  3  4  5  6  7  8  9  

Terminal Aerodrome Forecast

286
FTUS44 KBMX 312200 AAB
TAFMGM
TAF AMD
KMGM 312253Z 3123/0118 24007KT P6SM VCTS SCT025CB BKN050
     FM312300 22015G25KT 5SM -TSRA BR BKN025CB
     FM010000 00000KT P6SM SCT250
     FM011000 00000KT 6SM BR SCT025=

Latest METAR

435
SAUS80 KWBC 011100 RRG
MTRMGM
METAR KMGM 011053Z 00000KT 10SM CLR 23/21 A3010 RMK AO2 SLP189
T02330211


USA.gov is the U.S. government's official web portal to all federal, state and local government web resources and services.